Time;durP1;ratioP1;P1;durP2;ratioP2;P2;SDS_P1;SDS_P2;PMS_P1;PMS_P2;Temp;Humidity;BMP_temperature;BMP_pressure;BME280_temperature;BME280_humidity;BME280_pressure;Samples;Min_cycle;Max_cycle;Signal;HPM_P1;HPM_P2
2023/05/15 00:01:31;;;;;;;5.53;2.33;;;17.50;99.90;;;;;;5071536;28;20177;-73
2023/05/15 00:03:58;;;;;;;4.30;2.53;;;17.70;99.90;;;;;;5071153;28;20198;-71
2023/05/15 00:06:27;;;;;;;4.50;2.20;;;17.70;99.90;;;;;;5074706;28;20171;-73
2023/05/15 00:08:54;;;;;;;4.07;2.73;;;17.90;99.90;;;;;;5075424;28;20182;-70
2023/05/15 00:11:22;;;;;;;6.20;2.73;;;18.00;99.90;;;;;;5075237;28;20278;-71
2023/05/15 00:13:50;;;;;;;4.57;3.20;;;18.10;99.90;;;;;;5074309;28;20300;-71
2023/05/15 00:16:17;;;;;;;5.17;3.50;;;18.30;99.90;;;;;;5074893;28;20674;-71
2023/05/15 00:18:45;;;;;;;3.83;2.80;;;18.40;99.90;;;;;;5075191;28;20185;-73
2023/05/15 00:21:12;;;;;;;4.40;2.90;;;18.80;99.90;;;;;;5075389;28;20195;-72
2023/05/15 00:23:40;;;;;;;4.60;3.07;;;19.20;99.90;;;;;;5074774;28;20539;-73
2023/05/15 00:26:07;;;;;;;3.53;2.70;;;19.50;99.90;;;;;;5075384;28;20188;-73
2023/05/15 00:28:34;;;;;;;3.17;2.50;;;20.40;99.90;;;;;;5075031;28;20192;-72
2023/05/15 00:31:02;;;;;;;4.23;2.33;;;21.30;99.90;;;;;;5074932;28;20260;-73
2023/05/15 00:33:30;;;;;;;6.10;2.30;;;21.40;99.90;;;;;;5075048;28;20175;-72
2023/05/15 00:35:57;;;;;;;4.10;2.07;;;21.20;99.90;;;;;;5074889;28;20233;-73
2023/05/15 00:38:24;;;;;;;5.30;1.80;;;21.20;99.90;;;;;;5075062;28;20687;-72
2023/05/15 00:40:53;;;;;;;2.97;1.70;;;21.60;99.90;;;;;;5074703;28;20183;-74
2023/05/15 00:43:22;;;;;;;4.77;1.70;;;22.00;99.90;;;;;;5074941;28;20176;-73
2023/05/15 00:45:51;;;;;;;2.57;1.50;;;22.00;99.90;;;;;;5074799;28;20219;-73
2023/05/15 00:55:02;;;;;;;2.10;1.37;;;21.60;99.90;;;;;;5070903;28;20240;-73
2023/05/15 00:57:31;;;;;;;2.90;0.90;;;21.80;99.90;;;;;;5074481;28;20286;-74
2023/05/15 01:00:00;;;;;;;1.40;0.83;;;21.60;99.90;;;;;;5073141;28;20192;-71
2023/05/15 01:02:28;;;;;;;3.93;0.90;;;21.40;99.90;;;;;;5074151;28;20182;-74
2023/05/15 01:04:55;;;;;;;2.10;0.80;;;21.60;99.90;;;;;;5074316;28;20176;-74
2023/05/15 01:07:22;;;;;;;2.10;0.80;;;22.30;99.90;;;;;;5074740;28;20646;-75
2023/05/15 01:09:55;;;;;;;0.90;0.60;;;22.70;99.90;;;;;;5074380;28;20176;-74
2023/05/15 01:15:46;;;;;;;2.23;0.80;;;23.00;99.90;;;;;;5052259;28;20196;-72
2023/05/15 01:18:14;;;;;;;1.63;0.70;;;23.20;99.90;;;;;;5074265;28;20172;-73
2023/05/15 01:21:08;;;;;;;2.00;0.60;;;23.70;99.90;;;;;;5074831;28;20168;-73
2023/05/15 01:23:52;;;;;;;1.00;0.70;;;24.30;99.90;;;;;;5074370;28;20196;-73
2023/05/15 01:26:55;;;;;;;0.40;0.37;;;24.50;99.90;;;;;;5074177;28;20175;-71
2023/05/15 01:29:45;;;;;;;2.63;0.80;;;24.10;99.90;;;;;;5074172;28;20259;-73
2023/05/15 01:32:22;;;;;;;1.23;0.77;;;23.20;99.90;;;;;;5063534;28;20230;-74
2023/05/15 01:35:04;;;;;;;1.07;0.50;;;22.70;99.90;;;;;;5073641;28;20657;-73
2023/05/15 01:37:34;;;;;;;1.57;0.40;;;22.60;99.90;;;;;;5073805;28;20172;-69
2023/05/15 01:40:06;;;;;;;4.20;0.57;;;22.20;99.90;;;;;;5074098;28;20176;-74
2023/05/15 01:42:35;;;;;;;3.37;0.67;;;21.90;99.90;;;;;;5073939;28;20225;-73
2023/05/15 01:45:07;;;;;;;1.63;0.50;;;21.60;99.90;;;;;;5073962;28;20219;-74
2023/05/15 01:47:48;;;;;;;0.93;0.50;;;21.30;99.90;;;;;;5073723;28;20180;-73
2023/05/15 01:50:18;;;;;;;2.80;0.50;;;21.40;99.90;;;;;;5073828;28;20176;-73
2023/05/15 01:52:53;;;;;;;1.90;0.60;;;21.30;99.90;;;;;;5073321;28;20214;-74
2023/05/15 01:55:23;;;;;;;2.20;0.80;;;21.70;99.90;;;;;;5073701;28;20183;-73
2023/05/15 01:57:51;;;;;;;0.27;0.27;;;22.00;99.90;;;;;;5073414;28;20179;-70
2023/05/15 02:00:19;;;;;;;2.47;0.60;;;22.00;99.90;;;;;;5073618;28;20213;-70
2023/05/15 02:02:48;;;;;;;2.97;0.40;;;22.10;99.90;;;;;;5073421;28;20284;-70
2023/05/15 02:05:17;;;;;;;0.73;0.50;;;22.50;99.90;;;;;;5073382;28;20621;-70
2023/05/15 02:07:46;;;;;;;0.83;0.47;;;22.20;99.90;;;;;;5073360;28;20187;-73
2023/05/15 02:10:16;;;;;;;2.33;0.60;;;22.10;99.90;;;;;;5073837;28;20188;-69
2023/05/15 02:12:44;;;;;;;3.17;0.60;;;22.30;99.90;;;;;;5073175;28;20212;-73
2023/05/15 02:15:12;;;;;;;0.70;0.40;;;22.90;99.90;;;;;;5072544;28;20183;-73
2023/05/15 02:17:40;;;;;;;1.00;0.50;;;22.90;99.90;;;;;;5073081;28;20262;-70
2023/05/15 02:20:09;;;;;;;1.17;0.70;;;23.80;99.90;;;;;;5074656;28;20604;-71
2023/05/15 02:22:36;;;;;;;1.30;0.40;;;24.10;99.90;;;;;;5073338;28;20172;-71
2023/05/15 02:25:04;;;;;;;1.80;0.87;;;25.00;99.90;;;;;;5073098;28;20612;-74
2023/05/15 02:31:00;;;;;;;1.03;0.60;;;25.70;99.90;;;;;;5072023;28;20209;-70
2023/05/15 02:33:48;;;;;;;1.43;0.60;;;25.70;99.90;;;;;;5072821;28;20195;-71
2023/05/15 02:36:23;;;;;;;1.83;0.80;;;24.80;99.90;;;;;;5072894;28;20270;-71
2023/05/15 02:38:53;;;;;;;3.70;0.70;;;25.30;99.90;;;;;;5072875;28;20172;-75
2023/05/15 02:41:22;;;;;;;0.57;0.50;;;25.90;99.90;;;;;;5072476;28;20180;-71
2023/05/15 02:43:53;;;;;;;1.87;0.80;;;25.90;99.90;;;;;;5071373;28;20195;-73
2023/05/15 02:46:23;;;;;;;2.17;0.97;;;25.50;99.90;;;;;;5071684;28;20183;-74
2023/05/15 02:48:51;;;;;;;2.83;1.20;;;25.50;99.90;;;;;;5075111;28;20229;-75
2023/05/15 02:51:18;;;;;;;1.87;1.20;;;25.40;99.90;;;;;;5071092;28;20220;-76
2023/05/15 02:53:46;;;;;;;2.70;1.60;;;25.60;99.90;;;;;;5072381;28;20226;-76
2023/05/15 02:56:13;;;;;;;1.40;1.30;;;25.10;99.90;;;;;;5072475;28;20261;-77
2023/05/15 02:58:41;;;;;;;2.73;1.40;;;24.80;99.90;;;;;;5072308;28;20220;-75
2023/05/15 03:01:08;;;;;;;2.03;1.40;;;24.10;99.90;;;;;;5072339;28;20221;-73
2023/05/15 03:03:35;;;;;;;3.27;1.30;;;23.40;99.90;;;;;;5072105;28;20293;-74
2023/05/15 03:06:03;;;;;;;1.97;1.50;;;23.00;99.90;;;;;;5072322;28;20179;-75
2023/05/15 03:08:30;;;;;;;1.60;1.10;;;23.00;99.90;;;;;;5072135;28;20633;-75
2023/05/15 03:10:58;;;;;;;2.03;1.50;;;23.80;99.90;;;;;;5071993;28;20215;-75
2023/05/15 03:13:25;;;;;;;3.57;1.47;;;24.90;99.90;;;;;;5072025;28;20172;-76
2023/05/15 03:15:53;;;;;;;2.70;1.77;;;24.80;99.90;;;;;;5071154;28;20167;-73
2023/05/15 03:18:20;;;;;;;2.43;1.50;;;25.20;99.90;;;;;;5071281;28;20235;-74
2023/05/15 03:20:48;;;;;;;3.10;1.67;;;25.40;99.90;;;;;;5071384;28;20226;-75
2023/05/15 03:23:16;;;;;;;3.07;1.13;;;26.00;99.90;;;;;;5071805;28;20187;-73
2023/05/15 03:25:43;;;;;;;3.30;1.30;;;26.50;99.90;;;;;;5071192;28;20195;-74
2023/05/15 03:28:10;;;;;;;3.20;1.30;;;26.90;99.90;;;;;;5071294;28;20192;-75
2023/05/15 03:30:38;;;;;;;4.73;1.50;;;27.00;99.90;;;;;;5071728;28;20178;-75
2023/05/15 03:33:05;;;;;;;2.17;1.53;;;27.40;99.90;;;;;;5071812;28;20195;-74
2023/05/15 03:35:33;;;;;;;3.37;2.23;;;27.20;99.90;;;;;;5070493;28;20223;-70
2023/05/15 03:38:00;;;;;;;3.80;2.43;;;26.90;99.90;;;;;;5071459;28;20183;-71
2023/05/15 03:40:27;;;;;;;4.03;2.80;;;27.10;99.90;;;;;;5071011;28;20667;-71
2023/05/15 03:42:55;;;;;;;3.27;2.70;;;27.00;99.90;;;;;;5071494;28;20649;-74
2023/05/15 03:45:22;;;;;;;3.43;2.90;;;26.40;99.90;;;;;;5071379;28;20190;-75
2023/05/15 03:48:18;;;;;;;3.00;2.60;;;25.70;99.90;;;;;;5071673;28;20210;-75
2023/05/15 03:50:47;;;;;;;2.87;2.30;;;25.60;99.90;;;;;;5070368;28;20172;-69
2023/05/15 03:53:14;;;;;;;3.67;2.80;;;26.00;99.90;;;;;;5071608;28;20179;-74
2023/05/15 03:59:04;;;;;;;5.70;2.40;;;26.60;99.90;;;;;;5070840;28;20245;-74
2023/05/15 04:01:31;;;;;;;5.50;2.47;;;26.30;99.90;;;;;;5071394;28;20200;-75
2023/05/15 04:03:59;;;;;;;2.87;2.30;;;26.40;99.90;;;;;;5071392;28;20271;-75
2023/05/15 04:06:26;;;;;;;4.93;2.40;;;26.60;99.90;;;;;;5070632;28;20714;-77
2023/05/15 04:08:54;;;;;;;3.80;2.20;;;26.70;99.90;;;;;;5071449;28;20219;-75
2023/05/15 04:11:22;;;;;;;4.40;2.30;;;26.00;99.90;;;;;;5071196;28;20684;-76
2023/05/15 04:13:49;;;;;;;3.73;2.40;;;25.90;99.90;;;;;;5070223;28;20236;-75
2023/05/15 04:16:17;;;;;;;3.00;2.20;;;25.60;99.90;;;;;;5071323;28;20183;-74
2023/05/15 04:18:44;;;;;;;4.30;2.10;;;25.30;99.90;;;;;;5071390;28;20201;-72
2023/05/15 04:21:11;;;;;;;4.13;2.20;;;25.30;99.90;;;;;;5069974;28;20188;-76
2023/05/15 04:23:40;;;;;;;5.13;2.03;;;25.50;99.90;;;;;;5071258;28;20766;-75
2023/05/15 04:26:08;;;;;;;3.40;1.90;;;25.30;99.90;;;;;;5070166;28;20180;-73
2023/05/15 04:31:57;;;;;;;6.23;2.17;;;25.50;99.90;;;;;;5070389;28;20276;-75
2023/05/15 04:34:25;;;;;;;5.23;2.10;;;25.60;99.90;;;;;;5071014;28;20642;-75
2023/05/15 04:36:52;;;;;;;4.40;1.90;;;26.00;99.90;;;;;;5071227;28;20638;-75
2023/05/15 04:39:19;;;;;;;3.77;2.50;;;25.90;99.90;;;;;;5071258;28;20214;-75
2023/05/15 04:41:47;;;;;;;2.77;2.00;;;25.30;99.90;;;;;;5071171;28;20191;-75
2023/05/15 04:44:14;;;;;;;3.23;1.80;;;25.60;99.90;;;;;;5071082;28;20179;-74
2023/05/15 04:46:41;;;;;;;3.47;1.97;;;25.40;99.90;;;;;;5070926;28;20207;-73
2023/05/15 04:49:09;;;;;;;2.40;2.17;;;25.30;99.90;;;;;;5070259;28;20172;-75
2023/05/15 04:51:36;;;;;;;3.33;1.80;;;25.50;99.90;;;;;;5072556;28;20632;-73
2023/05/15 04:54:04;;;;;;;2.10;1.90;;;25.30;99.90;;;;;;5067710;28;20574;-74
2023/05/15 04:56:32;;;;;;;4.90;2.50;;;25.10;99.90;;;;;;5074289;28;20183;-77
2023/05/15 04:59:00;;;;;;;4.43;1.30;;;25.00;99.90;;;;;;5074092;28;20192;-74
2023/05/15 05:01:27;;;;;;;2.10;0.73;;;25.10;99.90;;;;;;5074479;28;20691;-71
2023/05/15 05:07:16;;;;;;;3.63;1.47;;;24.80;99.90;;;;;;5072837;28;20230;-72
2023/05/15 05:09:44;;;;;;;2.67;0.80;;;24.80;99.90;;;;;;5074113;28;20179;-72
2023/05/15 05:12:12;;;;;;;1.87;0.77;;;24.50;99.90;;;;;;5072922;28;20253;-74
2023/05/15 05:14:43;;;;;;;4.33;1.27;;;24.50;99.90;;;;;;5074331;28;20176;-70
2023/05/15 05:17:10;;;;;;;3.30;0.60;;;24.30;99.90;;;;;;5073977;28;20649;-71
2023/05/15 05:20:32;;;;;;;1.43;0.57;;;24.00;99.90;;;;;;5073666;28;20683;-72
2023/05/15 05:23:00;;;;;;;2.67;0.87;;;23.80;99.90;;;;;;5073853;28;20180;-75
2023/05/15 05:25:27;;;;;;;3.03;1.00;;;23.60;99.90;;;;;;5073738;28;20184;-74
2023/05/15 05:27:55;;;;;;;4.43;0.80;;;23.30;99.90;;;;;;5073410;28;20184;-74
2023/05/15 05:30:22;;;;;;;3.03;0.80;;;23.00;99.90;;;;;;5073785;28;20290;-74
2023/05/15 05:32:49;;;;;;;2.70;0.70;;;22.70;99.90;;;;;;5073343;28;20211;-73
2023/05/15 05:35:17;;;;;;;5.53;0.97;;;22.30;99.90;;;;;;5072741;28;20246;-75
2023/05/15 05:37:44;;;;;;;1.57;0.80;;;21.80;99.90;;;;;;5074225;28;20188;-74
2023/05/15 05:40:12;;;;;;;4.07;1.10;;;21.60;99.90;;;;;;5073624;28;20187;-73
2023/05/15 05:42:39;;;;;;;2.40;0.70;;;21.30;99.90;;;;;;5073338;28;20188;-74
2023/05/15 05:45:07;;;;;;;3.97;0.90;;;21.00;99.90;;;;;;5073672;28;20589;-74
2023/05/15 05:47:34;;;;;;;1.80;0.70;;;20.80;99.90;;;;;;5073431;28;20370;-73
2023/05/15 05:50:02;;;;;;;5.60;1.30;;;20.60;99.90;;;;;;5073320;28;20651;-73
2023/05/15 05:52:30;;;;;;;5.40;0.90;;;20.60;99.90;;;;;;5071715;28;20709;-72
2023/05/15 05:54:57;;;;;;;4.53;1.40;;;20.60;99.90;;;;;;5073321;28;20760;-73
2023/05/15 05:57:24;;;;;;;2.23;0.83;;;20.50;99.90;;;;;;5072395;28;20340;-74
2023/05/15 05:59:52;;;;;;;2.53;0.90;;;20.50;99.90;;;;;;5073447;28;20176;-72
2023/05/15 06:02:20;;;;;;;3.57;1.00;;;20.40;99.90;;;;;;5072744;28;20176;-73
2023/05/15 06:04:47;;;;;;;2.20;0.93;;;20.30;99.90;;;;;;5072868;28;20639;-74
2023/05/15 06:07:14;;;;;;;2.23;1.20;;;20.30;99.90;;;;;;5073343;28;20183;-72
2023/05/15 06:09:42;;;;;;;2.77;1.00;;;20.30;99.90;;;;;;5073215;28;20164;-76
2023/05/15 06:12:09;;;;;;;4.33;0.90;;;20.20;99.90;;;;;;5073240;28;20222;-73
2023/05/15 06:14:37;;;;;;;3.57;1.00;;;20.00;99.90;;;;;;5073036;28;20191;-76
2023/05/15 06:17:05;;;;;;;3.70;1.00;;;19.90;99.90;;;;;;5071720;28;20242;-73
2023/05/15 06:19:32;;;;;;;12.93;1.47;;;20.00;99.90;;;;;;5073107;28;20704;-73
2023/05/15 06:21:59;;;;;;;3.13;1.00;;;19.80;99.90;;;;;;5073140;28;20257;-71
2023/05/15 06:24:27;;;;;;;3.23;0.90;;;19.70;99.90;;;;;;5072635;28;20197;-72
2023/05/15 06:26:54;;;;;;;1.40;1.00;;;19.50;99.90;;;;;;5072684;28;20188;-73
2023/05/15 06:29:22;;;;;;;6.10;1.07;;;19.40;99.90;;;;;;5072504;28;20194;-73
2023/05/15 06:31:49;;;;;;;1.10;0.70;;;19.40;99.90;;;;;;5072540;28;20212;-74
2023/05/15 06:34:17;;;;;;;2.10;1.00;;;19.30;99.90;;;;;;5072027;28;20194;-73
2023/05/15 06:36:44;;;;;;;1.10;0.80;;;19.30;99.90;;;;;;5072147;28;20191;-73
2023/05/15 06:39:11;;;;;;;1.27;0.83;;;19.20;99.90;;;;;;5072513;28;20187;-74
2023/05/15 06:41:39;;;;;;;3.80;0.90;;;19.10;99.90;;;;;;5072128;28;20187;-71
2023/05/15 06:44:06;;;;;;;2.57;1.00;;;18.90;99.90;;;;;;5072420;28;20195;-73
2023/05/15 06:46:33;;;;;;;3.63;0.80;;;18.80;99.90;;;;;;5072531;28;20190;-73
2023/05/15 06:49:01;;;;;;;3.13;1.10;;;18.70;99.90;;;;;;5071986;28;20277;-70
2023/05/15 06:51:28;;;;;;;4.20;0.90;;;18.60;99.90;;;;;;5072161;28;20226;-72
2023/05/15 06:53:55;;;;;;;1.73;0.80;;;18.50;99.90;;;;;;5072191;28;20188;-72
2023/05/15 06:56:23;;;;;;;8.03;1.20;;;18.50;99.90;;;;;;5060182;28;20184;-72
2023/05/15 06:58:50;;;;;;;2.90;1.20;;;18.40;99.90;;;;;;5068977;28;20626;-72
2023/05/15 07:01:17;;;;;;;2.23;0.90;;;18.30;99.90;;;;;;5074872;28;20176;-71
2023/05/15 07:03:45;;;;;;;3.70;1.00;;;18.10;99.90;;;;;;5072257;28;20168;-70
2023/05/15 07:06:12;;;;;;;1.60;0.80;;;18.10;99.90;;;;;;5072048;28;20218;-71
2023/05/15 07:08:40;;;;;;;2.20;1.13;;;17.90;99.90;;;;;;5072155;28;20218;-71
2023/05/15 07:11:07;;;;;;;2.67;0.83;;;17.80;99.90;;;;;;5073287;28;20248;-70
2023/05/15 07:13:35;;;;;;;1.73;0.87;;;17.80;99.90;;;;;;5072832;28;20183;-72
2023/05/15 07:16:03;;;;;;;2.47;0.80;;;17.70;99.90;;;;;;5071063;28;20179;-73
2023/05/15 07:18:30;;;;;;;2.67;0.90;;;17.50;99.90;;;;;;5074040;28;20179;-74
2023/05/15 07:20:58;;;;;;;2.47;0.93;;;17.40;99.90;;;;;;5072985;28;20225;-72
2023/05/15 07:23:25;;;;;;;2.13;0.97;;;17.40;99.90;;;;;;5071653;28;20544;-71
2023/05/15 07:25:54;;;;;;;3.33;0.90;;;17.30;99.90;;;;;;5071942;28;20168;-72
2023/05/15 07:28:22;;;;;;;2.67;0.80;;;17.20;99.90;;;;;;5071964;28;20544;-73
2023/05/15 07:30:51;;;;;;;0.80;0.80;;;17.10;99.90;;;;;;5070231;28;20176;-72
2023/05/15 07:33:18;;;;;;;2.30;0.83;;;17.00;99.90;;;;;;5070241;28;20560;-72
2023/05/15 07:35:45;;;;;;;2.80;1.00;;;17.00;99.90;;;;;;5071366;28;20220;-72
2023/05/15 07:38:13;;;;;;;4.07;1.10;;;16.80;99.90;;;;;;5070926;28;20273;-73
2023/05/15 07:40:40;;;;;;;2.53;1.30;;;16.80;99.90;;;;;;5071388;28;20593;-71
2023/05/15 07:43:09;;;;;;;5.30;1.27;;;16.70;99.90;;;;;;5071432;28;20700;-69
2023/05/15 07:45:36;;;;;;;1.93;1.07;;;16.60;99.90;;;;;;5071732;28;20176;-73
2023/05/15 07:48:20;;;;;;;4.50;1.23;;;16.60;99.90;;;;;;5071385;28;20179;-72
2023/05/15 07:50:49;;;;;;;1.67;1.20;;;16.60;99.90;;;;;;5071356;28;20187;-69
2023/05/15 07:53:17;;;;;;;1.20;1.10;;;16.60;99.90;;;;;;5071318;28;20187;-72
2023/05/15 07:55:45;;;;;;;3.73;1.33;;;16.50;99.90;;;;;;5071761;28;20261;-70
2023/05/15 07:58:12;;;;;;;2.57;1.50;;;16.50;99.90;;;;;;5071349;28;20232;-73
2023/05/15 08:00:40;;;;;;;8.13;1.80;;;16.40;99.90;;;;;;5071616;28;20178;-72
2023/05/15 08:03:07;;;;;;;3.57;1.20;;;16.30;99.90;;;;;;5071203;28;20183;-72
2023/05/15 08:05:35;;;;;;;1.60;1.30;;;16.30;99.90;;;;;;5070301;28;20184;-71
2023/05/15 08:08:02;;;;;;;4.40;1.57;;;16.20;99.90;;;;;;5071232;28;20176;-73
2023/05/15 08:10:29;;;;;;;2.97;1.63;;;16.20;99.90;;;;;;5071536;28;20176;-73
2023/05/15 08:12:57;;;;;;;2.37;1.40;;;16.10;99.90;;;;;;5071436;28;20288;-71
2023/05/15 08:15:24;;;;;;;3.80;1.00;;;16.00;99.90;;;;;;5071531;28;20183;-71
2023/05/15 08:17:51;;;;;;;3.90;1.30;;;16.00;99.90;;;;;;5071294;28;20595;-73
2023/05/15 08:20:19;;;;;;;2.90;1.27;;;15.90;99.90;;;;;;5071438;28;20168;-72
2023/05/15 08:22:46;;;;;;;1.37;0.97;;;15.90;99.90;;;;;;5071352;28;20273;-72
2023/05/15 08:25:13;;;;;;;2.37;1.30;;;15.80;99.90;;;;;;5071474;28;20164;-71
2023/05/15 08:27:41;;;;;;;2.07;1.20;;;15.90;99.90;;;;;;5073396;28;20708;-73
2023/05/15 08:30:09;;;;;;;3.33;1.73;;;15.80;99.90;;;;;;5075319;28;20172;-71
2023/05/15 08:32:36;;;;;;;4.60;1.43;;;15.80;99.90;;;;;;5075211;28;20222;-73
2023/05/15 08:35:05;;;;;;;2.00;1.30;;;15.70;99.90;;;;;;5074967;28;20334;-71
2023/05/15 08:37:33;;;;;;;2.93;1.40;;;15.70;99.90;;;;;;5074794;28;20698;-73
2023/05/15 08:40:01;;;;;;;3.53;1.73;;;15.60;99.90;;;;;;5075004;28;20657;-71
2023/05/15 08:42:53;;;;;;;8.67;1.67;;;15.60;99.90;;;;;;5074814;28;20253;-72
2023/05/15 08:45:20;;;;;;;6.40;1.50;;;15.50;99.90;;;;;;5074512;28;20179;-70
2023/05/15 08:47:48;;;;;;;4.33;1.97;;;15.50;99.90;;;;;;5074598;28;20198;-71
2023/05/15 08:50:17;;;;;;;2.70;1.50;;;15.50;99.90;;;;;;5073327;28;20237;-71
2023/05/15 08:52:46;;;;;;;2.17;1.63;;;15.40;99.90;;;;;;5074554;28;20269;-70
2023/05/15 08:55:15;;;;;;;2.70;1.50;;;15.30;99.90;;;;;;5074966;28;20229;-70
2023/05/15 08:57:43;;;;;;;2.77;1.67;;;15.30;99.90;;;;;;5074847;28;20267;-70
2023/05/15 09:00:13;;;;;;;1.93;1.40;;;15.20;99.90;;;;;;5074680;28;20184;-74
2023/05/15 09:02:41;;;;;;;2.73;1.73;;;15.20;99.90;;;;;;5072867;28;20551;-71
2023/05/15 09:05:10;;;;;;;2.37;1.50;;;15.20;99.90;;;;;;5074333;28;20274;-73
2023/05/15 09:07:40;;;;;;;3.00;1.73;;;15.10;99.90;;;;;;5074536;28;20230;-69
2023/05/15 09:10:12;;;;;;;2.70;1.60;;;15.10;99.90;;;;;;5074663;28;20695;-70
2023/05/15 09:12:44;;;;;;;7.50;1.97;;;15.00;99.90;;;;;;5074402;28;20212;-71
2023/05/15 09:15:12;;;;;;;5.37;1.77;;;15.00;99.90;;;;;;5074146;28;20187;-72
2023/05/15 09:17:41;;;;;;;2.80;2.00;;;14.90;99.90;;;;;;5074486;28;20209;-71
2023/05/15 09:20:35;;;;;;;4.17;1.77;;;14.90;99.90;;;;;;5072846;28;20207;-73
2023/05/15 09:23:05;;;;;;;4.50;2.00;;;14.90;99.90;;;;;;5073582;28;20180;-71
2023/05/15 09:25:41;;;;;;;4.40;2.17;;;14.80;99.90;;;;;;5075428;28;20172;-72
2023/05/15 09:28:24;;;;;;;3.77;2.17;;;14.80;99.90;;;;;;5075387;28;20199;-73
2023/05/15 09:30:58;;;;;;;6.90;2.53;;;14.80;99.90;;;;;;5075121;28;20646;-69
2023/05/15 09:33:31;;;;;;;5.23;1.97;;;14.80;99.90;;;;;;5074821;28;20211;-71
2023/05/15 09:36:00;;;;;;;5.17;2.57;;;14.70;99.90;;;;;;5075057;28;20258;-73
2023/05/15 09:38:31;;;;;;;7.27;2.50;;;14.70;99.90;;;;;;5074976;28;20175;-72
2023/05/15 09:41:04;;;;;;;6.10;2.50;;;14.70;99.90;;;;;;5075402;28;20201;-70
2023/05/15 09:43:37;;;;;;;4.37;2.43;;;14.60;99.90;;;;;;5074615;28;20172;-71
2023/05/15 09:46:08;;;;;;;4.27;2.77;;;14.60;99.90;;;;;;5072196;28;20185;-71
2023/05/15 09:48:35;;;;;;;7.63;4.03;;;14.60;99.90;;;;;;5074576;28;20182;-71
2023/05/15 09:51:06;;;;;;;7.67;5.03;;;14.70;99.90;;;;;;5074260;28;20229;-70
2023/05/15 09:53:34;;;;;;;10.03;4.87;;;14.70;99.90;;;;;;5075299;28;20637;-73
2023/05/15 09:56:03;;;;;;;7.40;4.27;;;14.70;99.90;;;;;;5074928;28;20203;-72
2023/05/15 09:58:31;;;;;;;10.43;5.07;;;14.60;99.90;;;;;;5073355;28;20547;-70
2023/05/15 10:01:01;;;;;;;8.20;5.00;;;14.50;99.90;;;;;;5073528;28;20202;-70
2023/05/15 10:03:29;;;;;;;9.50;5.00;;;14.50;99.90;;;;;;5074652;28;20508;-71
2023/05/15 10:06:03;;;;;;;6.07;4.60;;;14.50;99.90;;;;;;5074662;28;20645;-70
2023/05/15 10:08:31;;;;;;;9.50;5.27;;;14.50;99.90;;;;;;5074700;28;20182;-69
2023/05/15 10:11:00;;;;;;;7.83;5.17;;;14.40;99.90;;;;;;5073218;28;20180;-67
2023/05/15 10:13:31;;;;;;;6.70;4.23;;;14.40;99.90;;;;;;5075482;28;20203;-70
2023/05/15 10:16:00;;;;;;;7.53;4.53;;;14.30;99.90;;;;;;5074614;28;20188;-70
2023/05/15 10:18:29;;;;;;;6.50;3.90;;;14.30;99.90;;;;;;5075456;28;20183;-70
2023/05/15 10:21:00;;;;;;;10.90;5.17;;;14.30;99.90;;;;;;5075417;28;20175;-71
2023/05/15 10:23:29;;;;;;;8.73;4.87;;;14.20;99.90;;;;;;5074268;28;20180;-70
2023/05/15 10:26:06;;;;;;;7.57;4.40;;;14.10;99.90;;;;;;5073729;28;20178;-71
2023/05/15 10:28:34;;;;;;;6.50;4.40;;;14.10;99.90;;;;;;5074090;28;20180;-72
2023/05/15 10:31:02;;;;;;;6.60;4.60;;;14.00;99.90;;;;;;5073926;28;20172;-70
2023/05/15 10:33:31;;;;;;;8.40;5.10;;;14.00;99.90;;;;;;5074099;28;20554;-72
2023/05/15 10:35:59;;;;;;;8.90;4.33;;;13.90;99.90;;;;;;5074056;28;20301;-72
2023/05/15 10:38:28;;;;;;;6.73;4.10;;;13.90;99.90;;;;;;5073874;28;20187;-70
2023/05/15 10:40:58;;;;;;;11.93;4.77;;;13.90;99.90;;;;;;5073747;28;20689;-70
2023/05/15 10:43:30;;;;;;;7.87;4.47;;;13.80;99.90;;;;;;5072737;28;20582;-70
2023/05/15 10:45:58;;;;;;;7.70;4.63;;;13.70;99.90;;;;;;5073766;28;20184;-71
2023/05/15 10:48:26;;;;;;;7.57;4.60;;;13.70;99.90;;;;;;5073720;28;20181;-71
2023/05/15 10:50:54;;;;;;;7.03;4.50;;;13.70;99.90;;;;;;5071790;28;20193;-73
2023/05/15 10:53:21;;;;;;;9.50;4.37;;;13.70;99.90;;;;;;5073743;28;20219;-73
2023/05/15 10:55:49;;;;;;;5.13;4.13;;;13.70;99.90;;;;;;5073713;28;20178;-71
2023/05/15 10:58:18;;;;;;;7.80;4.43;;;13.60;99.90;;;;;;5073772;28;20263;-69
2023/05/15 11:00:45;;;;;;;7.63;4.37;;;13.60;99.90;;;;;;5072946;28;20206;-71
2023/05/15 11:03:34;;;;;;;7.80;4.27;;;13.60;99.90;;;;;;5073405;28;20267;-68
2023/05/15 11:06:14;;;;;;;6.77;4.27;;;13.50;99.90;;;;;;5072344;28;20226;-69
2023/05/15 11:08:43;;;;;;;6.83;4.43;;;13.40;99.90;;;;;;5073524;28;20179;-69
2023/05/15 11:11:48;;;;;;;10.43;5.53;;;13.40;99.90;;;;;;5072870;28;20547;-69
2023/05/15 11:14:16;;;;;;;11.40;4.67;;;13.40;99.90;;;;;;5073173;28;20649;-70
2023/05/15 11:17:06;;;;;;;5.50;4.43;;;13.40;99.90;;;;;;5072088;28;20206;-71
2023/05/15 11:19:52;;;;;;;7.50;4.40;;;13.40;99.90;;;;;;5071745;28;20281;-70
2023/05/15 11:22:24;;;;;;;5.87;4.30;;;13.30;99.90;;;;;;5071168;28;20202;-71
2023/05/15 11:25:14;;;;;;;6.33;4.40;;;13.30;99.90;;;;;;5072973;28;20228;-71
2023/05/15 11:27:46;;;;;;;6.90;4.73;;;13.20;99.90;;;;;;5071626;28;20179;-70
2023/05/15 11:30:21;;;;;;;9.47;4.60;;;13.30;99.90;;;;;;5073099;28;20671;-71
2023/05/15 11:32:58;;;;;;;10.00;5.33;;;13.20;99.90;;;;;;5072561;28;20669;-72
2023/05/15 11:35:42;;;;;;;10.23;5.70;;;13.20;99.90;;;;;;5071115;28;20310;-69
2023/05/15 11:38:12;;;;;;;9.90;5.73;;;13.10;99.90;;;;;;5071742;28;20666;-71
2023/05/15 11:41:28;;;;;;;10.80;6.00;;;13.10;99.90;;;;;;5071825;28;20191;-70
2023/05/15 11:43:45;;;;;;;9.50;5.00;;;13.10;99.90;;;;;;5070041;28;20198;-71
2023/05/15 11:46:13;;;;;;;7.83;4.90;;;13.00;99.90;;;;;;5071877;28;20184;-70
2023/05/15 11:48:43;;;;;;;8.17;5.40;;;13.00;99.90;;;;;;5071873;28;20622;-69
2023/05/15 11:51:24;;;;;;;9.50;6.23;;;13.00;99.90;;;;;;5071741;28;20654;-71
2023/05/15 11:53:54;;;;;;;9.47;5.50;;;13.00;99.90;;;;;;5071479;28;20171;-71
2023/05/15 11:56:23;;;;;;;7.93;6.43;;;13.00;99.90;;;;;;5071743;28;20163;-71
2023/05/15 11:58:58;;;;;;;10.00;6.33;;;13.00;99.90;;;;;;5071513;28;20179;-71
2023/05/15 12:01:28;;;;;;;11.47;6.53;;;13.00;99.90;;;;;;5070364;28;20182;-72
2023/05/15 12:03:55;;;;;;;10.70;6.40;;;13.00;99.90;;;;;;5071404;28;20178;-71
2023/05/15 12:06:23;;;;;;;12.80;6.63;;;12.90;99.90;;;;;;5071771;28;20527;-72
2023/05/15 12:08:55;;;;;;;12.13;6.30;;;12.90;99.90;;;;;;5070415;28;20269;-72
2023/05/15 12:11:23;;;;;;;12.00;6.03;;;12.80;99.90;;;;;;5071600;28;20606;-71
2023/05/15 12:13:54;;;;;;;11.27;6.47;;;12.80;99.90;;;;;;5071487;28;20178;-72
2023/05/15 12:16:26;;;;;;;10.37;6.20;;;12.80;99.90;;;;;;5071203;28;20179;-69
2023/05/15 12:18:55;;;;;;;10.33;6.20;;;12.80;99.90;;;;;;5071442;28;20236;-71
2023/05/15 12:21:23;;;;;;;12.10;6.83;;;12.70;99.90;;;;;;5071592;28;20727;-71
2023/05/15 12:23:57;;;;;;;11.93;6.97;;;12.70;99.90;;;;;;5071206;28;20206;-70
2023/05/15 12:26:26;;;;;;;12.90;6.80;;;12.70;99.90;;;;;;5071697;28;20170;-70
2023/05/15 12:28:54;;;;;;;11.10;6.47;;;12.70;99.90;;;;;;5071234;28;20528;-70
2023/05/15 12:31:22;;;;;;;11.70;6.97;;;12.70;99.90;;;;;;5071340;28;20713;-71
2023/05/15 12:33:49;;;;;;;10.27;6.57;;;12.60;99.90;;;;;;5071236;28;20175;-71
2023/05/15 12:36:22;;;;;;;9.23;6.60;;;12.60;99.90;;;;;;4935220;28;3890203;-72
2023/05/15 12:38:50;;;;;;;10.53;6.40;;;12.60;99.90;;;;;;5072359;28;20180;-71
2023/05/15 12:41:19;;;;;;;11.27;7.03;;;12.60;99.90;;;;;;5072129;28;20244;-70
2023/05/15 12:43:47;;;;;;;9.70;7.13;;;12.50;99.90;;;;;;5072192;28;20232;-71
2023/05/15 12:46:14;;;;;;;7.43;5.77;;;12.50;99.90;;;;;;5072333;28;20183;-71
2023/05/15 12:48:42;;;;;;;13.00;7.23;;;12.40;99.90;;;;;;5071856;28;20194;-69
2023/05/15 12:54:38;;;;;;;8.57;6.33;;;12.40;99.90;;;;;;5070911;28;20278;-72
2023/05/15 12:57:05;;;;;;;11.23;6.03;;;12.40;99.90;;;;;;5071979;28;20219;-71
2023/05/15 12:59:32;;;;;;;9.83;6.07;;;12.30;99.90;;;;;;5071888;28;20570;-70
2023/05/15 13:02:00;;;;;;;11.73;6.43;;;12.40;99.90;;;;;;5071514;28;20175;-72
2023/05/15 13:04:28;;;;;;;11.27;7.47;;;12.40;99.90;;;;;;5072041;28;20183;-69
2023/05/15 13:06:55;;;;;;;9.17;6.33;;;12.40;99.90;;;;;;5071047;28;20180;-71
2023/05/15 13:09:25;;;;;;;10.00;6.60;;;12.40;99.90;;;;;;5071837;28;20209;-72
2023/05/15 13:11:55;;;;;;;8.50;6.33;;;12.40;99.90;;;;;;5071717;28;20227;-71
2023/05/15 13:14:26;;;;;;;8.50;6.40;;;12.40;99.90;;;;;;5073829;28;20191;-72
2023/05/15 13:16:53;;;;;;;11.47;6.90;;;12.30;99.90;;;;;;5074123;28;20198;-72
2023/05/15 13:19:21;;;;;;;9.00;6.43;;;12.20;99.90;;;;;;5075110;28;20177;-71
2023/05/15 13:21:49;;;;;;;13.87;6.60;;;12.10;99.90;;;;;;5075201;28;20542;-71
2023/05/15 13:24:17;;;;;;;12.73;7.23;;;12.10;99.90;;;;;;5075127;28;20182;-72
2023/05/15 13:26:44;;;;;;;9.77;6.50;;;12.10;99.90;;;;;;5075278;28;20221;-73